Adriatic Id — VRFP6 — position and weather

sailwx.info

Track history (hours):
 
Tides and Currents Weather Stations Pressure Air Temp Water Temp Dewpoint Dewpoint Depression Visibility Wind Speed Wind Dir Waves Ship Positions

Adriatic Id

Last reported at 2016-Aug-21 04:07 UTC. Time now 2016-Aug-25 20:12 UTC.
Position N 26°08' E 119°35'.

Length 158 m; draft 9 m.

Type: Cargo ship. MMSI: 477559800.

Date/timePositionNaut miles runAvg speedWind from/ knotsBaromVisibWave heightAir tempDewpointWater temp
2016-Aug-21 04:07N 26°08' E 119°35'4 7.7
2016-Aug-21 03:33N 26°05' E 119°32'3 0.2
2016-Aug-20 09:30N 26°03' E 119°30'0 0.0
2016-Aug-20 07:17N 26°03' E 119°30'0 0.0
2016-Aug-20 06:23N 26°03' E 119°30'2 2.5
2016-Aug-20 05:33N 26°04' E 119°31'0 0.1
2016-Aug-20 04:15N 26°04' E 119°31'0 0.1
2016-Aug-20 00:33N 26°05' E 119°31'0 0.0
2016-Aug-19 23:21N 26°05' E 119°31'0 0.0
2016-Aug-19 21:21N 26°05' E 119°31'0 0.0
2016-Aug-19 20:28N 26°05' E 119°31'0 0.0
2016-Aug-19 19:33N 26°05' E 119°31'0 0.0
2016-Aug-19 18:19N 26°05' E 119°31'0 0.2
2016-Aug-19 17:27N 26°04' E 119°31'0 0.0
2016-Aug-19 16:18N 26°04' E 119°31'0 0.0
2016-Aug-19 15:33N 26°04' E 119°31'0 0.0
2016-Aug-19 14:33N 26°04' E 119°31'0 0.0
2016-Aug-19 13:32N 26°04' E 119°31'0 0.2
2016-Aug-19 12:32N 26°05' E 119°31'0 0.1
2016-Aug-19 11:33N 26°05' E 119°31'0 0.0
2016-Aug-19 10:33N 26°05' E 119°31'0 0.1
2016-Aug-19 09:30N 26°04' E 119°31'3 3.3
2016-Aug-19 08:32N 26°07' E 119°33'  
2016-Aug-13 09:32N 26°07' E 119°34'6 5.4
2016-Aug-13 08:26N 26°03' E 119°30'0 0.0
2016-Aug-13 07:27N 26°03' E 119°30'0 0.0
2016-Aug-13 06:21N 26°03' E 119°30'0 0.0
2016-Aug-13 04:33N 26°03' E 119°30'0 0.0
2016-Aug-13 03:15N 26°03' E 119°30'0 0.0
2016-Aug-13 02:33N 26°03' E 119°30'0 0.0
2016-Aug-12 21:27N 26°03' E 119°30'0 0.0
2016-Aug-12 19:09N 26°03' E 119°30'0 0.0
2016-Aug-12 18:21N 26°03' E 119°30'0 0.0
2016-Aug-12 15:33N 26°03' E 119°30'0 0.0
2016-Aug-12 10:27N 26°03' E 119°30'0 0.0
2016-Aug-12 09:27N 26°03' E 119°30'0 0.0
2016-Aug-12 07:33N 26°03' E 119°30'0 0.0
2016-Aug-12 06:33N 26°03' E 119°30'0 0.0
2016-Aug-12 04:09N 26°03' E 119°30'0 0.0
2016-Aug-12 03:33N 26°03' E 119°30'4 4.1
2016-Aug-12 02:32N 26°06' E 119°32'  
Track history (hours):
 
Tides and Currents Weather Stations Pressure Air Temp Water Temp Dewpoint Dewpoint Depression Visibility Wind Speed Wind Dir Waves Ship Positions

Adriatic Id

Last reported at 2016-Aug-21 04:07 UTC. Time now 2016-Aug-25 20:12 UTC.
Position N 26°08' E 119°35'.

Length 158 m; draft 9 m.

Type: Cargo ship. MMSI: 477559800.

Date/timePositionNaut miles runAvg speedWind from/ knotsBaromVisibWave heightAir tempDewpointWater temp
2016-Aug-21 04:07N 26°08' E 119°35'4 7.7
2016-Aug-21 03:33N 26°05' E 119°32'3 0.2
2016-Aug-20 09:30N 26°03' E 119°30'0 0.0
2016-Aug-20 07:17N 26°03' E 119°30'0 0.0
2016-Aug-20 06:23N 26°03' E 119°30'2 2.5
2016-Aug-20 05:33N 26°04' E 119°31'0 0.1
2016-Aug-20 04:15N 26°04' E 119°31'0 0.1
2016-Aug-20 00:33N 26°05' E 119°31'0 0.0
2016-Aug-19 23:21N 26°05' E 119°31'0 0.0
2016-Aug-19 21:21N 26°05' E 119°31'0 0.0
2016-Aug-19 20:28N 26°05' E 119°31'0 0.0
2016-Aug-19 19:33N 26°05' E 119°31'0 0.0
2016-Aug-19 18:19N 26°05' E 119°31'0 0.2
2016-Aug-19 17:27N 26°04' E 119°31'0 0.0
2016-Aug-19 16:18N 26°04' E 119°31'0 0.0
2016-Aug-19 15:33N 26°04' E 119°31'0 0.0
2016-Aug-19 14:33N 26°04' E 119°31'0 0.0
2016-Aug-19 13:32N 26°04' E 119°31'0 0.2
2016-Aug-19 12:32N 26°05' E 119°31'0 0.1
2016-Aug-19 11:33N 26°05' E 119°31'0 0.0
2016-Aug-19 10:33N 26°05' E 119°31'0 0.1
2016-Aug-19 09:30N 26°04' E 119°31'3 3.3
2016-Aug-19 08:32N 26°07' E 119°33'  
2016-Aug-13 09:32N 26°07' E 119°34'6 5.4
2016-Aug-13 08:26N 26°03' E 119°30'0 0.0
2016-Aug-13 07:27N 26°03' E 119°30'0 0.0
2016-Aug-13 06:21N 26°03' E 119°30'0 0.0
2016-Aug-13 04:33N 26°03' E 119°30'0 0.0
2016-Aug-13 03:15N 26°03' E 119°30'0 0.0
2016-Aug-13 02:33N 26°03' E 119°30'0 0.0
2016-Aug-12 21:27N 26°03' E 119°30'0 0.0
2016-Aug-12 19:09N 26°03' E 119°30'0 0.0
2016-Aug-12 18:21N 26°03' E 119°30'0 0.0
2016-Aug-12 15:33N 26°03' E 119°30'0 0.0
2016-Aug-12 10:27N 26°03' E 119°30'0 0.0
2016-Aug-12 09:27N 26°03' E 119°30'0 0.0
2016-Aug-12 07:33N 26°03' E 119°30'0 0.0
2016-Aug-12 06:33N 26°03' E 119°30'0 0.0
2016-Aug-12 04:09N 26°03' E 119°30'0 0.0
2016-Aug-12 03:33N 26°03' E 119°30'4 4.1
2016-Aug-12 02:32N 26°06' E 119°32'  

Dump ship's entire track history